Time;durP1;ratioP1;P1;durP2;ratioP2;P2;SDS_P1;SDS_P2;PMS_P1;PMS_P2;Temp;Humidity;BMP_temperature;BMP_pressure;BME280_temperature;BME280_humidity;BME280_pressure;Samples;Min_cycle;Max_cycle;Signal;HPM_P1;HPM_P2
2021/05/24 00:00:18;;;;;;;2.80;1.30;;;;;;;7.74;72.13;99090.84;5083428;28;20139;-49
2021/05/24 00:02:46;;;;;;;1.80;1.70;;;;;;;7.79;72.08;99086.97;5092718;28;20101;-49
2021/05/24 00:05:22;;;;;;;3.03;1.35;;;;;;;7.75;71.93;99089.69;5074717;28;20041;-53
2021/05/24 00:07:50;;;;;;;1.63;1.02;;;;;;;7.75;71.96;99089.69;5087460;28;20105;-51
2021/05/24 00:10:20;;;;;;;1.90;1.20;;;;;;;7.76;71.92;99088.50;5092399;28;20059;-50
2021/05/24 00:12:49;;;;;;;2.22;1.08;;;;;;;7.72;71.96;99095.94;5093055;28;20043;-51
2021/05/24 00:15:25;;;;;;;1.70;1.40;;;;;;;7.69;71.92;99090.34;5091867;28;20071;-48
2021/05/24 00:17:53;;;;;;;5.18;2.10;;;;;;;7.62;72.02;99088.28;5089104;28;20063;-48
2021/05/24 00:20:26;;;;;;;4.88;2.08;;;;;;;7.59;72.15;99099.22;5084966;28;20064;-50
2021/05/24 00:22:54;;;;;;;3.40;2.13;;;;;;;7.58;72.22;99100.38;5074549;28;20735;-50
2021/05/24 00:25:21;;;;;;;3.08;2.33;;;;;;;7.61;72.10;99094.94;5085584;28;20106;-55
2021/05/24 00:27:49;;;;;;;3.10;2.45;;;;;;;7.54;71.92;99094.81;5088856;28;20131;-50
2021/05/24 00:30:17;;;;;;;3.28;2.97;;;;;;;7.50;72.09;99093.94;5091106;28;20447;-49
2021/05/24 00:32:44;;;;;;;5.07;3.03;;;;;;;7.50;72.36;99093.94;5085802;28;20109;-49
2021/05/24 00:35:11;;;;;;;4.63;3.70;;;;;;;7.45;72.47;99104.44;5092155;28;20509;-48
2021/05/24 00:37:38;;;;;;;4.40;3.35;;;;;;;7.49;72.09;99108.06;5079884;28;20090;-50
2021/05/24 00:40:08;;;;;;;5.20;3.72;;;;;;;7.46;72.39;99098.59;5088200;28;20079;-52
2021/05/24 00:42:35;;;;;;;7.60;3.08;;;;;;;7.39;72.32;99094.91;5081514;28;20089;-51
2021/05/24 00:45:04;;;;;;;4.57;3.53;;;;;;;7.35;72.56;99103.88;5089890;28;20070;-48
2021/05/24 00:47:31;;;;;;;3.65;2.97;;;;;;;7.44;72.34;99097.38;5079982;28;20366;-48
2021/05/24 00:49:59;;;;;;;4.15;2.83;;;;;;;7.51;72.24;99103.78;5092493;28;20052;-49
2021/05/24 00:52:26;;;;;;;5.40;3.13;;;;;;;7.47;72.20;99102.91;5052822;28;20152;-51
2021/05/24 00:54:52;;;;;;;6.03;3.95;;;;;;;7.35;72.23;99109.41;5052892;28;20072;-49
2021/05/24 00:57:22;;;;;;;7.30;4.90;;;;;;;7.26;72.68;99105.25;5058453;28;20152;-49
2021/05/24 00:59:49;;;;;;;6.45;4.68;;;;;;;7.20;73.26;99106.72;5070531;28;20140;-48
2021/05/24 01:02:17;;;;;;;6.53;4.40;;;;;;;7.19;73.32;99116.13;5053460;28;20068;-48
2021/05/24 01:04:43;;;;;;;4.47;3.42;;;;;;;7.22;73.51;99109.91;5070169;28;20144;-48
2021/05/24 01:07:10;;;;;;;6.68;3.53;;;;;;;7.32;73.08;99109.31;5069253;28;20087;-48
2021/05/24 01:09:37;;;;;;;7.72;4.40;;;;;;;7.32;73.30;99114.81;5059359;28;20131;-49
2021/05/24 01:12:04;;;;;;;6.25;4.13;;;;;;;7.30;73.56;99104.19;5070484;28;20087;-48
2021/05/24 01:14:31;;;;;;;7.20;4.18;;;;;;;7.35;73.29;99116.84;5065222;28;20076;-51
2021/05/24 01:16:58;;;;;;;5.78;3.42;;;;;;;7.43;73.28;99109.53;5070299;28;20072;-49
2021/05/24 01:19:25;;;;;;;8.15;4.65;;;;;;;7.39;73.62;99106.69;5065012;28;20473;-50
2021/05/24 01:21:52;;;;;;;8.25;4.57;;;;;;;7.36;73.47;99104.66;5057329;28;20052;-50
2021/05/24 01:24:20;;;;;;;8.70;5.10;;;;;;;7.34;73.84;99107.00;5066673;28;20719;-50
2021/05/24 01:26:47;;;;;;;6.43;3.38;;;;;;;7.29;73.92;99121.06;5064497;28;20103;-50
2021/05/24 01:29:18;;;;;;;6.88;3.85;;;;;;;7.33;73.75;99117.19;5068905;28;20041;-53
2021/05/24 01:31:48;;;;;;;4.97;2.97;;;;;;;7.41;73.51;99115.41;5042179;28;20087;-49
2021/05/24 01:34:16;;;;;;;3.80;2.50;;;;;;;7.43;73.07;99115.03;5068532;28;20080;-49
2021/05/24 01:36:43;;;;;;;1.50;1.33;;;;;;;7.42;73.04;99111.47;5058805;28;20127;-47
2021/05/24 01:39:10;;;;;;;2.20;1.55;;;;;;;7.48;72.85;99118.28;5067958;28;20052;-50
2021/05/24 01:41:37;;;;;;;3.60;2.10;;;;;;;7.47;72.65;99122.19;5070239;28;20048;-49
2021/05/24 01:44:05;;;;;;;6.10;1.90;;;;;;;7.41;73.18;99122.88;5069509;28;20059;-47
2021/05/24 01:46:32;;;;;;;2.63;1.42;;;;;;;7.37;72.93;99117.28;5063223;28;20076;-48
2021/05/24 01:48:59;;;;;;;3.03;1.60;;;;;;;7.31;73.45;99121.47;5057276;28;20080;-48
2021/05/24 01:51:26;;;;;;;3.10;2.00;;;;;;;7.34;73.33;99118.81;5071207;28;20067;-51
2021/05/24 01:53:52;;;;;;;2.08;1.40;;;;;;;7.34;73.17;99118.81;5079239;28;20127;-48
2021/05/24 01:56:19;;;;;;;2.83;1.50;;;;;;;7.30;73.62;99128.16;5084002;28;20123;-48
2021/05/24 01:58:46;;;;;;;4.95;1.77;;;;;;;7.21;73.95;99125.63;5082045;28;20151;-52
2021/05/24 02:01:14;;;;;;;2.20;1.38;;;;;;;7.22;73.93;99120.91;5090712;28;20121;-49
2021/05/24 02:03:41;;;;;;;3.33;1.45;;;;;;;7.21;73.77;99125.63;5082437;28;20054;-53
2021/05/24 02:06:07;;;;;;;1.58;1.30;;;;;;;7.19;74.01;99121.63;5080984;28;20044;-48
2021/05/24 02:08:34;;;;;;;3.75;1.60;;;;;;;7.17;73.68;99121.22;5085916;28;20072;-50
2021/05/24 02:11:03;;;;;;;2.35;1.50;;;;;;;7.15;73.67;99120.75;5085926;28;20052;-48
2021/05/24 02:13:31;;;;;;;5.05;2.15;;;;;;;7.09;73.88;99131.28;5084101;28;20044;-51
2021/05/24 02:15:58;;;;;;;3.15;2.05;;;;;;;7.13;73.94;99123.06;5084250;28;20036;-48
2021/05/24 02:18:27;;;;;;;2.50;2.13;;;;;;;7.18;73.64;99125.53;5085433;28;20040;-51
2021/05/24 02:20:54;;;;;;;2.75;2.08;;;;;;;7.20;73.56;99128.75;5076975;28;20144;-49
2021/05/24 02:23:22;;;;;;;4.15;1.60;;;;;;;7.15;74.02;99131.75;5072095;28;20048;-48
2021/05/24 02:25:48;;;;;;;2.45;1.60;;;;;;;7.08;73.96;99135.16;5090836;28;20134;-48
2021/05/24 02:28:15;;;;;;;2.92;1.85;;;;;;;7.17;73.73;99145.97;5084386;28;20064;-47
2021/05/24 02:30:42;;;;;;;3.03;2.20;;;;;;;7.21;73.64;99138.56;5076889;28;20450;-48
2021/05/24 02:33:09;;;;;;;3.00;1.63;;;;;;;7.17;73.75;99144.03;5082263;28;20052;-48
2021/05/24 02:35:36;;;;;;;2.92;2.28;;;;;;;7.13;73.72;99136.84;5077579;28;20036;-47
2021/05/24 02:38:04;;;;;;;3.88;1.90;;;;;;;7.05;73.88;99133.13;5063858;28;20496;-50
2021/05/24 02:40:32;;;;;;;4.47;2.50;;;;;;;7.03;74.17;99137.41;5072067;28;20044;-48
2021/05/24 02:43:02;;;;;;;2.72;1.55;;;;;;;7.06;74.21;99144.94;5088932;28;20084;-48
2021/05/24 02:45:29;;;;;;;1.80;1.40;;;;;;;7.16;73.97;99144.38;5083304;28;20469;-50
2021/05/24 02:47:57;;;;;;;2.22;1.60;;;;;;;7.12;73.90;99143.50;5091376;28;20040;-49
2021/05/24 02:50:24;;;;;;;4.25;1.80;;;;;;;7.07;74.27;99146.56;5086265;28;20086;-50
2021/05/24 02:52:55;;;;;;;4.32;1.42;;;;;;;7.03;74.22;99140.16;5090306;28;20068;-48
2021/05/24 02:55:23;;;;;;;6.00;2.03;;;;;;;6.99;74.45;99145.56;5082984;28;20436;-48
2021/05/24 02:57:50;;;;;;;2.17;1.80;;;;;;;6.98;74.66;99149.50;5075692;28;20044;-51
2021/05/24 03:00:17;;;;;;;2.72;1.80;;;;;;;7.04;74.90;99150.78;5085157;28;20134;-51
2021/05/24 03:02:48;;;;;;;3.63;1.35;;;;;;;7.08;74.56;99159.13;5084213;28;20493;-49
2021/05/24 03:05:19;;;;;;;2.13;1.88;;;;;;;7.12;74.47;99149.78;5091450;28;20044;-48
2021/05/24 03:07:48;;;;;;;4.72;1.60;;;;;;;7.11;74.59;99144.66;5083790;28;20079;-52
2021/05/24 03:10:17;;;;;;;4.10;1.92;;;;;;;7.12;74.86;99165.53;5090842;28;20044;-48
2021/05/24 03:12:44;;;;;;;1.92;1.45;;;;;;;7.09;74.56;99160.75;5081971;28;20044;-47
2021/05/24 03:15:13;;;;;;;1.63;1.25;;;;;;;7.09;74.82;99163.50;5080548;28;20040;-48
2021/05/24 03:17:40;;;;;;;2.80;1.50;;;;;;;7.08;74.70;99161.88;5091716;28;20101;-48
2021/05/24 03:20:09;;;;;;;2.15;1.33;;;;;;;7.11;74.85;99163.91;5092717;28;20122;-48
2021/05/24 03:22:37;;;;;;;2.42;1.20;;;;;;;7.13;74.65;99156.09;5079026;28;20114;-48
2021/05/24 03:25:08;;;;;;;2.90;1.30;;;;;;;7.16;74.58;99171.88;5087206;28;20079;-48
2021/05/24 03:27:35;;;;;;;1.95;0.88;;;;;;;7.14;74.82;99163.22;5087259;28;20128;-47
2021/05/24 03:30:05;;;;;;;1.10;1.00;;;;;;;7.11;74.91;99170.22;5083902;28;20409;-48
2021/05/24 03:32:33;;;;;;;2.45;1.13;;;;;;;7.10;74.91;99170.56;5084100;28;20550;-50
2021/05/24 03:35:00;;;;;;;1.08;0.90;;;;;;;7.11;75.02;99174.94;5082367;28;20101;-47
2021/05/24 03:37:30;;;;;;;2.40;1.23;;;;;;;7.11;75.15;99174.94;5089194;28;20051;-49
2021/05/24 03:39:57;;;;;;;1.98;1.40;;;;;;;7.11;75.10;99181.25;5085915;28;20044;-50
2021/05/24 03:42:24;;;;;;;1.10;1.00;;;;;;;7.09;75.24;99183.56;5088802;28;20081;-48
2021/05/24 03:44:54;;;;;;;2.78;1.05;;;;;;;7.11;75.29;99188.69;5078611;28;20141;-48
2021/05/24 03:47:22;;;;;;;2.33;1.20;;;;;;;7.11;75.23;99183.19;5085687;28;20058;-47
2021/05/24 03:49:49;;;;;;;2.08;1.00;;;;;;;7.10;75.33;99189.84;5093279;28;20159;-49
2021/05/24 03:52:17;;;;;;;1.50;1.00;;;;;;;7.11;75.40;99188.69;5086556;28;20113;-49
2021/05/24 03:54:44;;;;;;;1.55;1.00;;;;;;;7.14;75.42;99193.47;5073131;28;20076;-48
2021/05/24 03:57:12;;;;;;;1.85;1.20;;;;;;;7.17;75.16;99195.50;5086170;28;20040;-47
2021/05/24 03:59:42;;;;;;;1.65;1.20;;;;;;;7.16;75.46;99199.41;5090828;28;20523;-50
2021/05/24 04:02:08;;;;;;;1.98;1.13;;;;;;;7.19;75.48;99198.69;5086168;28;20136;-49
2021/05/24 04:04:36;;;;;;;2.22;1.40;;;;;;;7.17;75.35;99201.03;5086720;28;20139;-52
2021/05/24 04:07:07;;;;;;;1.90;1.42;;;;;;;7.17;75.50;99203.78;5077572;28;20121;-49
2021/05/24 04:09:36;;;;;;;3.30;1.48;;;;;;;7.15;75.47;99203.31;5091975;28;20052;-56
2021/05/24 04:12:03;;;;;;;2.28;1.50;;;;;;;7.16;75.30;99210.41;5086446;28;20083;-48
2021/05/24 04:14:32;;;;;;;2.30;1.40;;;;;;;7.10;75.57;99207.16;5088410;28;20048;-53
2021/05/24 04:17:00;;;;;;;2.05;1.50;;;;;;;7.04;75.71;99208.56;5090887;28;20040;-48
2021/05/24 04:19:26;;;;;;;1.98;1.50;;;;;;;6.99;75.77;99217.13;5087134;28;20055;-48
2021/05/24 04:21:55;;;;;;;3.67;1.70;;;;;;;7.05;75.60;99217.63;5079396;28;20097;-48
2021/05/24 04:24:21;;;;;;;3.13;2.05;;;;;;;7.09;75.72;99226.78;5083740;28;20040;-50
2021/05/24 04:26:48;;;;;;;4.63;2.85;;;;;;;7.09;75.49;99227.59;5087574;28;20087;-51
2021/05/24 04:29:16;;;;;;;4.00;1.85;;;;;;;7.11;75.40;99241.78;5055498;28;20048;-51
2021/05/24 04:31:47;;;;;;;2.13;1.30;;;;;;;7.10;75.35;99240.16;5086245;28;20051;-51
2021/05/24 04:34:13;;;;;;;2.45;1.40;;;;;;;7.10;75.65;99250.38;5082194;28;20032;-48
2021/05/24 04:36:41;;;;;;;2.03;1.80;;;;;;;7.06;75.43;99250.31;5087063;28;20162;-48
2021/05/24 04:39:08;;;;;;;3.88;2.08;;;;;;;7.07;75.51;99262.13;5059099;28;20068;-48
2021/05/24 04:41:36;;;;;;;2.50;1.90;;;;;;;7.06;75.55;99260.53;5057201;28;20220;-49
2021/05/24 04:44:12;;;;;;;2.50;1.67;;;;;;;7.05;75.82;99269.91;5074541;28;20075;-50
2021/05/24 04:46:39;;;;;;;4.05;1.83;;;;;;;7.06;75.71;99271.53;5092623;28;20068;-54
2021/05/24 04:49:06;;;;;;;4.22;2.17;;;;;;;7.06;75.67;99272.31;5078463;28;20036;-49
2021/05/24 04:51:33;;;;;;;2.30;1.67;;;;;;;7.05;75.87;99275.41;5073437;28;20460;-52
2021/05/24 04:54:00;;;;;;;4.72;2.05;;;;;;;7.02;76.08;99281.63;5080521;28;20138;-48
2021/05/24 04:56:26;;;;;;;4.43;2.15;;;;;;;7.02;76.16;99287.13;5086975;28;20142;-49
2021/05/24 04:58:53;;;;;;;3.20;2.60;;;;;;;7.02;76.11;99287.13;5092669;28;20093;-49
2021/05/24 05:01:20;;;;;;;3.08;2.33;;;;;;;7.05;76.25;99289.19;5079486;28;20438;-50
2021/05/24 05:03:47;;;;;;;7.25;2.67;;;;;;;7.07;76.27;99297.91;5090657;28;20072;-50
2021/05/24 05:06:14;;;;;;;4.38;2.53;;;;;;;7.07;76.60;99297.91;5083723;28;20076;-49
2021/05/24 05:08:41;;;;;;;3.90;2.28;;;;;;;7.07;76.51;99300.66;5089097;28;20097;-49
2021/05/24 05:11:08;;;;;;;3.63;2.70;;;;;;;7.09;76.46;99309.34;5090006;28;20407;-51
2021/05/24 05:13:34;;;;;;;2.70;2.45;;;;;;;7.14;76.65;99306.31;5083778;28;20500;-48
2021/05/24 05:16:01;;;;;;;4.07;2.85;;;;;;;7.15;76.59;99316.16;5090838;28;20040;-48
2021/05/24 05:18:28;;;;;;;14.02;3.60;;;;;;;7.21;76.64;99318.28;5080236;28;20093;-51
2021/05/24 05:20:55;;;;;;;6.38;2.30;;;;;;;7.26;76.51;99319.97;5081586;28;20078;-48
2021/05/24 05:23:22;;;;;;;2.60;2.28;;;;;;;7.32;76.66;99324.03;5084718;28;20040;-48
2021/05/24 05:25:48;;;;;;;3.97;2.38;;;;;;;7.38;76.58;99324.56;5085329;28;20040;-52
2021/05/24 05:28:16;;;;;;;3.70;2.75;;;;;;;7.37;77.00;99332.03;5081343;28;20090;-51
2021/05/24 05:30:42;;;;;;;8.73;3.67;;;;;;;7.44;76.79;99332.16;5077954;28;20067;-52
2021/05/24 05:33:09;;;;;;;4.25;2.28;;;;;;;7.51;76.81;99337.88;5066926;28;20469;-53
2021/05/24 05:35:36;;;;;;;3.25;2.72;;;;;;;7.58;76.72;99329.75;5087921;28;20040;-49
2021/05/24 05:38:03;;;;;;;4.10;2.63;;;;;;;7.66;77.00;99334.25;5092181;28;20374;-50
2021/05/24 05:40:32;;;;;;;4.30;3.13;;;;;;;7.70;76.84;99339.84;5091263;28;20044;-51
2021/05/24 05:43:01;;;;;;;3.00;2.53;;;;;;;7.74;76.74;99349.78;5090245;28;20050;-49
2021/05/24 05:45:29;;;;;;;4.93;3.22;;;;;;;7.80;76.76;99345.59;5088393;28;20056;-50
2021/05/24 05:47:56;;;;;;;6.63;3.38;;;;;;;7.82;76.70;99348.78;5079014;28;20079;-48
2021/05/24 05:50:26;;;;;;;4.38;2.90;;;;;;;7.84;76.80;99346.47;5090106;28;20082;-50
2021/05/24 05:52:52;;;;;;;4.22;2.97;;;;;;;7.87;76.69;99351.25;5089106;28;20157;-51
2021/05/24 05:55:20;;;;;;;4.53;3.15;;;;;;;7.87;76.78;99367.78;5081639;28;20063;-51
2021/05/24 05:57:46;;;;;;;4.75;3.00;;;;;;;7.93;76.51;99366.34;5088317;28;20130;-50
2021/05/24 06:00:14;;;;;;;4.95;3.22;;;;;;;8.01;76.80;99352.72;5079678;28;20561;-51
2021/05/24 06:02:40;;;;;;;4.60;3.35;;;;;;;8.08;76.63;99363.88;5088885;28;20052;-52
2021/05/24 06:05:11;;;;;;;7.22;3.50;;;;;;;8.13;76.41;99363.63;5079864;28;20097;-50
2021/05/24 06:07:39;;;;;;;5.13;3.20;;;;;;;8.16;76.66;99373.91;5091111;28;20105;-51
2021/05/24 06:10:09;;;;;;;4.40;3.00;;;;;;;8.16;76.75;99371.94;5082877;28;20078;-49
2021/05/24 06:12:36;;;;;;;3.45;2.45;;;;;;;8.16;76.61;99380.22;5075594;28;20068;-52
2021/05/24 06:15:04;;;;;;;4.45;3.70;;;;;;;8.21;76.56;99376.34;5087466;28;20528;-49
2021/05/24 06:17:31;;;;;;;4.78;2.95;;;;;;;8.29;76.51;99386.41;5087647;28;20553;-52
2021/05/24 06:19:59;;;;;;;6.00;3.22;;;;;;;8.33;76.46;99390.03;5078556;28;20055;-51
2021/05/24 06:22:25;;;;;;;6.32;3.25;;;;;;;8.33;76.11;99401.06;5077221;28;20139;-52
2021/05/24 06:24:52;;;;;;;4.18;2.15;;;;;;;8.37;76.31;99401.94;5090315;28;20048;-51
2021/05/24 06:27:19;;;;;;;3.72;2.60;;;;;;;8.44;76.32;99402.09;5090167;28;20043;-52
2021/05/24 06:29:45;;;;;;;4.85;2.25;;;;;;;8.48;75.87;99400.19;5089925;28;20079;-55
2021/05/24 06:32:14;;;;;;;3.50;2.38;;;;;;;8.50;75.64;99409.69;5082880;28;20040;-50
2021/05/24 06:34:41;;;;;;;3.05;1.83;;;;;;;8.60;75.56;99411.09;5076184;28;20080;-52
2021/05/24 06:37:07;;;;;;;4.88;1.90;;;;;;;8.67;75.43;99415.94;5081771;28;20553;-51
2021/05/24 06:39:34;;;;;;;4.65;2.35;;;;;;;8.73;75.28;99420.00;5080709;28;20047;-54
2021/05/24 06:42:01;;;;;;;4.10;2.20;;;;;;;8.74;75.05;99425.16;5083026;28;20586;-49
2021/05/24 06:44:32;;;;;;;5.10;1.83;;;;;;;8.79;74.92;99430.38;5074910;28;20048;-52
2021/05/24 06:46:59;;;;;;;2.55;1.80;;;;;;;8.79;74.66;99430.38;5076061;28;20091;-52
2021/05/24 06:49:28;;;;;;;4.07;1.95;;;;;;;8.85;74.78;99430.88;5083642;28;20044;-53
2021/05/24 06:51:54;;;;;;;2.42;1.52;;;;;;;8.89;74.71;99438.06;5085009;28;20053;-53
2021/05/24 06:54:21;;;;;;;6.45;2.40;;;;;;;8.94;74.41;99448.81;5078805;28;20083;-57
2021/05/24 06:56:48;;;;;;;2.03;1.27;;;;;;;9.02;74.06;99450.53;5089005;28;20055;-49
2021/05/24 06:59:15;;;;;;;4.88;1.42;;;;;;;9.11;73.91;99456.59;5090234;28;20524;-58
2021/05/24 07:01:41;;;;;;;3.00;1.08;;;;;;;9.18;73.96;99451.22;5089531;28;20051;-56
2021/05/24 07:04:14;;;;;;;2.55;1.30;;;;;;;9.30;73.79;99460.47;5082193;28;20040;-55
2021/05/24 07:06:41;;;;;;;3.47;1.00;;;;;;;9.37;73.48;99469.69;5078664;28;20048;-57
2021/05/24 07:09:08;;;;;;;3.85;1.15;;;;;;;9.45;73.51;99470.63;5082641;28;20060;-58
2021/05/24 07:11:35;;;;;;;4.95;1.40;;;;;;;9.52;73.14;99479.84;5080775;28;20057;-58
2021/05/24 07:14:02;;;;;;;3.35;1.52;;;;;;;9.61;72.98;99487.88;5077596;28;20098;-57
2021/05/24 07:16:29;;;;;;;3.72;1.05;;;;;;;9.68;72.74;99482.47;5081547;28;20076;-56
2021/05/24 07:18:56;;;;;;;3.03;2.33;;;;;;;9.67;72.42;99492.72;5075968;28;20036;-56
2021/05/24 07:21:23;;;;;;;1.98;0.80;;;;;;;9.66;72.19;99496.63;5078427;28;20036;-55
2021/05/24 07:23:53;;;;;;;4.07;0.73;;;;;;;9.75;72.02;99504.69;5085910;28;20085;-56
2021/05/24 07:26:24;;;;;;;1.35;0.88;;;;;;;9.78;71.60;99512.25;5085208;28;20067;-57
2021/05/24 07:28:51;;;;;;;4.93;0.80;;;;;;;9.87;71.48;99517.53;5085876;28;20055;-56
2021/05/24 07:31:18;;;;;;;2.05;0.95;;;;;;;10.01;71.50;99524.06;5087899;28;20044;-57
2021/05/24 07:33:46;;;;;;;2.80;1.25;;;;;;;10.14;71.22;99525.47;5085965;28;20063;-58
2021/05/24 07:36:17;;;;;;;1.48;0.93;;;;;;;10.27;71.38;99531.63;5091973;28;20044;-58
2021/05/24 07:38:44;;;;;;;2.75;1.15;;;;;;;10.37;71.44;99536.50;5084336;28;20044;-58
2021/05/24 07:41:11;;;;;;;1.10;1.00;;;;;;;10.46;71.93;99539.03;5084027;28;20557;-59
2021/05/24 07:43:38;;;;;;;2.88;1.70;;;;;;;10.72;73.21;99547.28;5083833;28;20051;-55
2021/05/24 07:46:05;;;;;;;6.03;1.00;;;;;;;11.04;73.58;99542.16;5082796;28;20094;-55
2021/05/24 07:48:32;;;;;;;1.80;0.70;;;;;;;11.40;73.71;99544.94;5087564;28;20066;-59
2021/05/24 07:51:03;;;;;;;3.05;1.20;;;;;;;11.76;73.15;99556.41;5090805;28;20052;-54
2021/05/24 07:53:31;;;;;;;1.52;0.90;;;;;;;12.17;73.16;99549.66;5088142;28;20295;-58
2021/05/24 07:55:57;;;;;;;3.75;2.00;;;;;;;12.69;72.43;99559.50;5080300;28;20047;-54
2021/05/24 07:58:28;;;;;;;2.90;0.88;;;;;;;13.31;70.92;99552.69;5090983;28;20040;-56
2021/05/24 08:00:54;;;;;;;2.92;0.80;;;;;;;13.96;68.32;99555.19;5085781;28;20044;-57
2021/05/24 08:03:21;;;;;;;2.58;0.77;;;;;;;14.57;66.10;99567.91;5087227;28;20047;-55
2021/05/24 08:05:48;;;;;;;4.15;1.05;;;;;;;15.17;63.81;99573.31;5091536;28;20510;-57
2021/05/24 08:08:15;;;;;;;2.22;0.68;;;;;;;15.73;61.70;99571.47;5084506;28;20040;-57
2021/05/24 08:10:42;;;;;;;4.25;0.80;;;;;;;16.16;59.81;99572.75;5088697;28;20047;-55
2021/05/24 08:13:09;;;;;;;3.85;1.10;;;;;;;16.68;58.58;99578.34;5084154;28;20155;-56
2021/05/24 08:15:38;;;;;;;3.83;1.05;;;;;;;16.93;56.97;99573.25;5081739;28;20416;-57
2021/05/24 08:18:09;;;;;;;7.47;1.25;;;;;;;16.98;55.53;99586.78;5081416;28;20048;-56
2021/05/24 08:20:37;;;;;;;4.28;1.05;;;;;;;17.18;54.82;99584.16;5084351;28;20040;-56
2021/05/24 08:23:04;;;;;;;6.93;1.13;;;;;;;16.98;53.60;99584.78;5080042;28;20119;-56
2021/05/24 08:25:31;;;;;;;4.72;1.40;;;;;;;16.62;52.90;99589.16;5075234;28;20479;-58
2021/05/24 08:27:58;;;;;;;7.45;1.70;;;;;;;16.28;52.63;99589.00;5085434;28;20076;-54
2021/05/24 08:30:30;;;;;;;4.63;0.88;;;;;;;15.92;52.69;99593.28;5072557;28;20067;-52
2021/05/24 08:32:57;;;;;;;3.35;0.93;;;;;;;15.86;52.65;99592.13;5081742;28;20075;-53
2021/05/24 08:35:24;;;;;;;3.15;0.90;;;;;;;15.86;52.39;99592.13;5086319;28;20083;-58
2021/05/24 08:37:53;;;;;;;2.88;1.00;;;;;;;15.99;52.03;99596.00;5080685;28;20078;-57
2021/05/24 08:40:20;;;;;;;3.85;1.33;;;;;;;15.87;51.53;99592.91;5087697;28;20040;-58
2021/05/24 08:42:47;;;;;;;2.78;0.77;;;;;;;15.61;51.24;99597.06;5083477;28;20123;-58
2021/05/24 08:45:15;;;;;;;3.60;1.23;;;;;;;15.34;51.36;99601.53;5085666;28;21056;-58
2021/05/24 08:47:42;;;;;;;1.45;0.63;;;;;;;15.01;51.43;99605.66;5060819;28;20052;-56
2021/05/24 08:50:13;;;;;;;4.22;0.93;;;;;;;14.63;51.45;99604.53;5087877;28;20052;-58
2021/05/24 08:52:41;;;;;;;3.50;1.58;;;;;;;14.35;51.17;99610.13;5077056;28;20524;-58
2021/05/24 08:55:10;;;;;;;4.55;1.02;;;;;;;14.00;51.51;99608.84;5077198;28;20388;-54
2021/05/24 08:57:38;;;;;;;5.30;1.02;;;;;;;13.84;52.01;99618.78;5083791;28;20085;-57
2021/05/24 09:00:08;;;;;;;7.82;0.75;;;;;;;13.69;52.03;99623.50;5074408;28;20135;-57
2021/05/24 09:02:50;;;;;;;4.20;0.75;;;;;;;13.38;53.44;99630.56;5055768;28;20083;-57
2021/05/24 09:05:17;;;;;;;;;;;;;;;13.08;54.41;99637.56;5081879;28;20044;-54
2021/05/24 09:07:56;;;;;;;2.25;0.80;;;;;;;12.88;54.70;99648.13;5081007;28;19920;-56
2021/05/24 09:10:25;;;;;;;4.88;0.85;;;;;;;12.87;54.85;99642.97;5078096;28;20048;-57
2021/05/24 09:12:52;;;;;;;4.38;0.90;;;;;;;12.86;54.81;99646.91;5085771;28;20044;-58
2021/05/24 09:15:20;;;;;;;7.05;0.63;;;;;;;12.80;55.05;99658.38;5063136;28;20048;-54
2021/05/24 09:17:52;;;;;;;6.32;0.90;;;;;;;12.82;55.23;99656.00;5074860;28;20127;-54
2021/05/24 09:20:19;;;;;;;;;;;;;;;12.95;55.38;99664.00;5085332;28;20049;-52
2021/05/24 09:23:17;;;;;;;3.47;0.75;;;;;;;13.28;55.11;99666.63;5080066;28;19966;-52
2021/05/24 09:26:03;;;;;;;4.93;0.80;;;;;;;13.69;54.96;99667.19;5077784;28;20051;-53
2021/05/24 09:28:35;;;;;;;4.45;1.00;;;;;;;13.97;54.44;99659.75;5071327;28;20048;-54
2021/05/24 09:31:10;;;;;;;4.95;1.23;;;;;;;14.22;54.35;99670.91;5080657;28;20059;-55
2021/05/24 09:33:39;;;;;;;4.32;1.17;;;;;;;14.68;54.19;99664.59;5084334;28;20053;-55
2021/05/24 09:36:07;;;;;;;1.35;0.88;;;;;;;15.10;53.77;99682.06;5083621;28;20405;-53
2021/05/24 09:38:47;;;;;;;4.43;1.02;;;;;;;15.61;52.61;99680.75;5088116;28;20119;-53
2021/05/24 09:41:17;;;;;;;5.65;1.05;;;;;;;16.27;52.40;99679.63;5082947;28;20045;-55
2021/05/24 09:43:47;;;;;;;4.07;0.80;;;;;;;17.02;51.59;99679.81;5065621;28;20040;-55
2021/05/24 09:46:25;;;;;;;4.30;1.13;;;;;;;17.72;48.68;99683.06;5077846;28;20075;-57
2021/05/24 09:49:03;;;;;;;3.30;0.88;;;;;;;18.32;48.89;99694.22;5086783;28;20043;-60
2021/05/24 09:51:34;;;;;;;2.90;0.65;;;;;;;18.74;47.02;99687.22;5074832;28;20039;-57
2021/05/24 09:54:13;;;;;;;3.28;0.70;;;;;;;18.75;46.34;99689.59;5084833;28;20093;-51
2021/05/24 09:56:49;;;;;;;1.77;0.70;;;;;;;18.23;46.25;99685.56;5085053;28;20457;-54
2021/05/24 09:59:23;;;;;;;1.65;0.60;;;;;;;17.57;46.13;99693.66;5087144;28;20048;-56
2021/05/24 10:02:01;;;;;;;5.93;0.98;;;;;;;17.08;46.72;99686.53;5082088;28;20046;-54
2021/05/24 10:04:31;;;;;;;5.22;0.70;;;;;;;16.79;46.82;99688.00;5087788;28;20160;-54
2021/05/24 10:07:01;;;;;;;4.00;0.82;;;;;;;16.28;47.08;99695.16;5083964;28;20044;-49
2021/05/24 10:09:32;;;;;;;6.85;1.00;;;;;;;15.83;47.19;99699.78;5079636;28;20393;-55
2021/05/24 10:12:04;;;;;;;1.55;0.98;;;;;;;15.50;47.84;99705.91;5081781;28;20450;-56
2021/05/24 10:14:31;;;;;;;5.85;1.73;;;;;;;15.25;48.16;99707.91;5082724;28;20044;-56
2021/05/24 10:17:07;;;;;;;3.78;0.93;;;;;;;15.37;48.15;99706.72;5086290;28;20136;-57
2021/05/24 10:19:33;;;;;;;2.95;0.77;;;;;;;16.11;47.68;99698.84;5084401;28;20424;-57
2021/05/24 10:22:00;;;;;;;3.42;0.80;;;;;;;16.49;47.21;99716.59;5075208;28;20761;-59
2021/05/24 10:24:27;;;;;;;3.60;0.70;;;;;;;16.31;47.14;99719.47;5086130;28;20040;-49
2021/05/24 10:26:57;;;;;;;2.40;0.60;;;;;;;15.97;46.91;99717.66;5075412;28;20055;-57
2021/05/24 10:29:24;;;;;;;1.17;0.50;;;;;;;16.24;46.35;99713.94;5076794;28;20098;-59
2021/05/24 10:31:52;;;;;;;1.75;0.50;;;;;;;16.60;45.66;99725.69;5084222;28;20040;-58
2021/05/24 10:34:21;;;;;;;1.65;0.30;;;;;;;16.59;45.53;99726.13;5077843;28;20047;-55
2021/05/24 10:37:06;;;;;;;3.53;0.60;;;;;;;16.43;44.67;99721.81;5081698;28;20048;-55
2021/05/24 10:39:54;;;;;;;1.88;0.28;;;;;;;16.69;44.05;99728.81;5083311;28;20094;-57
2021/05/24 10:42:40;;;;;;;9.43;4.03;;;;;;;16.84;43.23;99730.28;5085843;28;20776;-58
2021/05/24 10:45:18;;;;;;;2.20;1.42;;;;;;;16.92;43.30;99734.63;5080557;28;20055;-56
2021/05/24 10:47:53;;;;;;;2.38;1.08;;;;;;;17.07;43.59;99743.69;5063601;28;20060;-55
2021/05/24 10:50:21;;;;;;;1.13;0.40;;;;;;;17.06;43.47;99730.91;5082895;28;20040;-53
2021/05/24 10:53:04;;;;;;;1.95;0.30;;;;;;;17.00;42.42;99738.16;5057965;28;20123;-52
2021/05/24 10:55:36;;;;;;;2.47;0.55;;;;;;;16.89;42.92;99731.88;5080741;28;20071;-56
2021/05/24 10:58:09;;;;;;;0.88;0.30;;;;;;;16.80;42.69;99739.94;5062670;28;20054;-54
2021/05/24 11:00:58;;;;;;;3.53;0.65;;;;;;;16.84;42.87;99741.47;5085052;28;20774;-55
2021/05/24 11:03:25;;;;;;;1.98;0.35;;;;;;;16.84;43.52;99743.47;5089690;28;20044;-54
2021/05/24 11:06:10;;;;;;;1.52;1.02;;;;;;;16.89;42.81;99743.84;5086640;28;20068;-55
2021/05/24 11:08:39;;;;;;;2.58;0.32;;;;;;;17.02;43.98;99735.75;5083894;28;20052;-54
2021/05/24 11:11:17;;;;;;;1.40;0.30;;;;;;;17.00;43.38;99743.75;5083834;28;20071;-56
2021/05/24 11:13:57;;;;;;;3.58;0.55;;;;;;;16.76;43.52;99753.16;5077624;28;20056;-53
2021/05/24 11:16:26;;;;;;;8.57;1.23;;;;;;;16.58;43.90;99755.25;5084398;28;20051;-54
2021/05/24 11:19:11;;;;;;;1.10;0.57;;;;;;;16.38;42.98;99755.75;5087344;28;20075;-55
2021/05/24 11:21:50;;;;;;;3.47;1.08;;;;;;;16.23;43.94;99757.03;5087992;28;20048;-55
2021/05/24 11:24:36;;;;;;;2.00;0.75;;;;;;;16.26;44.06;99761.00;5088362;28;20097;-54
2021/05/24 11:27:11;;;;;;;1.35;0.47;;;;;;;16.25;44.05;99770.59;5088639;28;20486;-55
2021/05/24 11:29:39;;;;;;;2.03;0.88;;;;;;;16.29;44.15;99766.56;5062402;28;20048;-59
2021/05/24 11:32:41;;;;;;;3.75;0.52;;;;;;;16.24;42.91;99767.00;5084975;28;20528;-60
2021/05/24 11:35:27;;;;;;;1.08;0.80;;;;;;;16.01;42.68;99766.72;5067321;28;20066;-59
2021/05/24 11:37:54;;;;;;;1.75;0.60;;;;;;;15.86;43.90;99759.59;5077207;28;20079;-53
2021/05/24 11:40:26;;;;;;;0.75;0.28;;;;;;;15.83;43.58;99771.59;5086027;28;20086;-59
2021/05/24 11:43:08;;;;;;;1.48;0.52;;;;;;;15.83;43.86;99763.22;5088961;28;20040;-58
2021/05/24 11:45:37;;;;;;;4.93;0.60;;;;;;;15.95;44.57;99779.50;5083079;28;20181;-54
2021/05/24 11:48:06;;;;;;;3.13;0.25;;;;;;;15.66;44.75;99776.00;5084669;28;20802;-55